createdAt,value
2018-07-30T00:00:21.013Z,9.00
2018-07-30T00:02:49.711Z,8.70
2018-07-30T00:05:18.467Z,8.88
2018-07-30T00:07:47.207Z,8.65
2018-07-30T00:10:16.091Z,9.20
2018-07-30T00:12:44.720Z,9.23
2018-07-30T00:15:13.406Z,8.98
2018-07-30T00:17:43.824Z,9.80
2018-07-30T00:20:12.620Z,9.15
2018-07-30T00:22:41.263Z,9.98
2018-07-30T00:25:12.560Z,9.20
2018-07-30T00:27:42.007Z,9.30
2018-07-30T00:30:10.887Z,9.73
2018-07-30T00:32:39.682Z,9.53
2018-07-30T00:35:08.535Z,8.95
2018-07-30T00:37:39.330Z,9.50
2018-07-30T00:40:11.532Z,9.50
2018-07-30T00:42:40.379Z,10.08
2018-07-30T00:45:09.131Z,9.40
2018-07-30T00:47:38.796Z,10.08
2018-07-30T00:50:07.523Z,10.55
2018-07-30T00:52:36.240Z,10.25
2018-07-30T00:55:05.080Z,11.30
2018-07-30T00:57:33.820Z,10.55
2018-07-30T01:00:02.635Z,10.25
2018-07-30T01:02:31.273Z,10.65
2018-07-30T01:05:00.037Z,9.53
2018-07-30T01:07:28.721Z,9.80
2018-07-30T01:09:57.430Z,10.23
2018-07-30T01:12:26.099Z,10.25
2018-07-30T01:14:54.827Z,9.73
2018-07-30T01:17:23.389Z,10.03
2018-07-30T01:19:52.209Z,9.87
2018-07-30T01:22:20.894Z,9.95
2018-07-30T01:24:49.613Z,10.17
2018-07-30T01:27:18.673Z,10.08
2018-07-30T01:29:49.164Z,9.90
2018-07-30T01:32:17.741Z,9.90
2018-07-30T01:34:48.215Z,9.50
2018-07-30T01:37:16.912Z,9.78
2018-07-30T01:39:48.408Z,9.80
2018-07-30T01:42:17.430Z,9.90
2018-07-30T01:44:47.072Z,9.95
2018-07-30T01:47:16.396Z,9.03
2018-07-30T01:49:45.226Z,9.73
2018-07-30T01:52:14.037Z,9.77
2018-07-30T01:54:42.659Z,10.03
2018-07-30T01:57:11.398Z,10.10
2018-07-30T01:59:40.194Z,9.90
2018-07-30T02:02:08.884Z,9.85
2018-07-30T02:04:37.600Z,9.73
2018-07-30T02:07:12.108Z,10.03
2018-07-30T02:09:45.040Z,10.53
2018-07-30T02:12:13.964Z,9.95
2018-07-30T02:14:43.551Z,10.05
2018-07-30T02:17:12.248Z,10.25
2018-07-30T02:19:40.980Z,10.23
2018-07-30T02:22:09.705Z,10.23
2018-07-30T02:24:38.447Z,10.13
2018-07-30T02:27:07.192Z,10.10
2018-07-30T02:29:35.859Z,10.03
2018-07-30T02:32:04.866Z,10.38
2018-07-30T02:34:33.661Z,10.10
2018-07-30T02:37:02.398Z,10.27
2018-07-30T02:39:31.040Z,10.25
2018-07-30T02:41:59.598Z,9.80
2018-07-30T02:44:28.289Z,10.28
2018-07-30T02:46:57.775Z,10.05
2018-07-30T02:49:26.343Z,10.10
2018-07-30T02:51:55.161Z,9.88
2018-07-30T02:54:23.787Z,10.38
2018-07-30T02:56:52.487Z,10.58
2018-07-30T02:59:21.307Z,11.08
2018-07-30T03:01:50.048Z,11.88
2018-07-30T03:04:18.752Z,11.10
2018-07-30T03:06:47.446Z,11.08
2018-07-30T03:09:16.340Z,10.55
2018-07-30T03:11:45.025Z,10.08
2018-07-30T03:14:13.664Z,10.40
2018-07-30T03:16:42.353Z,10.53
2018-07-30T03:19:11.000Z,10.72
2018-07-30T03:21:39.896Z,10.80
2018-07-30T03:24:09.399Z,10.35
2018-07-30T03:26:38.146Z,11.97
2018-07-30T03:29:06.934Z,10.90
2018-07-30T03:31:35.837Z,10.97
2018-07-30T03:34:04.692Z,11.43
2018-07-30T03:36:33.452Z,10.85
2018-07-30T03:39:02.336Z,10.87
2018-07-30T03:41:31.144Z,10.72
2018-07-30T03:43:59.875Z,10.43
2018-07-30T03:46:28.486Z,10.85
2018-07-30T03:48:59.151Z,10.97
2018-07-30T03:51:27.812Z,10.70
2018-07-30T03:53:57.621Z,10.58
2018-07-30T03:56:26.515Z,10.65
2018-07-30T03:58:58.159Z,11.63
2018-07-30T04:01:26.884Z,11.85
2018-07-30T04:03:55.761Z,11.60
2018-07-30T04:06:24.564Z,11.03
2018-07-30T04:08:53.485Z,12.03
2018-07-30T04:11:22.330Z,11.27
2018-07-30T04:13:51.119Z,11.53
2018-07-30T04:16:19.969Z,11.65
2018-07-30T04:18:48.716Z,11.60
2018-07-30T04:21:17.537Z,11.38
2018-07-30T04:23:46.239Z,11.40
2018-07-30T04:26:15.034Z,12.15
2018-07-30T04:28:44.973Z,11.43
2018-07-30T04:31:13.789Z,11.70
2018-07-30T04:33:42.624Z,12.13
2018-07-30T04:36:11.457Z,11.33
2018-07-30T04:38:40.195Z,12.20
2018-07-30T04:41:08.893Z,12.70
2018-07-30T04:43:37.635Z,11.73
2018-07-30T04:46:06.461Z,11.00
2018-07-30T04:48:35.149Z,12.85
2018-07-30T04:51:03.900Z,12.03
2018-07-30T04:53:35.343Z,12.05
2018-07-30T04:56:04.068Z,12.10
2018-07-30T04:58:33.468Z,13.22
2018-07-30T05:01:02.328Z,14.50
2018-07-30T05:03:31.097Z,11.88
2018-07-30T05:06:00.027Z,12.33
2018-07-30T05:08:28.777Z,12.20
2018-07-30T05:10:57.583Z,11.80
2018-07-30T05:13:26.290Z,11.50
2018-07-30T05:15:56.281Z,17.77
2018-07-30T05:18:25.021Z,11.25
2018-07-30T05:20:53.750Z,11.35
2018-07-30T05:23:22.752Z,11.43
2018-07-30T05:25:51.443Z,11.95
2018-07-30T05:28:20.256Z,11.70
2018-07-30T05:30:49.086Z,12.37
2018-07-30T05:33:19.326Z,12.43
2018-07-30T05:35:51.806Z,11.87
2018-07-30T05:38:20.483Z,12.98
2018-07-30T05:40:53.917Z,11.55
2018-07-30T05:43:22.779Z,12.10
2018-07-30T05:45:51.447Z,12.60
2018-07-30T05:48:20.220Z,13.00
2018-07-30T05:50:49.035Z,13.20
2018-07-30T05:53:17.824Z,13.80
2018-07-30T05:55:46.600Z,14.07
2018-07-30T05:58:15.357Z,13.32
2018-07-30T06:00:44.171Z,13.60
2018-07-30T06:03:15.890Z,16.62
2018-07-30T06:05:49.150Z,15.28
2018-07-30T06:08:17.853Z,14.03
2018-07-30T06:10:46.577Z,14.58
2018-07-30T06:13:16.416Z,14.47
2018-07-30T06:15:45.261Z,16.07
2018-07-30T06:18:13.917Z,14.30
2018-07-30T06:20:42.582Z,15.58
2018-07-30T06:23:11.354Z,15.67
2018-07-30T06:25:40.116Z,16.87
2018-07-30T06:28:08.736Z,16.37
2018-07-30T06:30:38.142Z,18.05
2018-07-30T06:33:07.006Z,17.32
2018-07-30T06:35:35.782Z,16.57
2018-07-30T06:38:04.778Z,17.77
2018-07-30T06:40:33.583Z,17.33
2018-07-30T06:43:06.327Z,16.95
2018-07-30T06:45:35.193Z,17.47
2018-07-30T06:48:04.171Z,17.62
2018-07-30T06:50:39.036Z,18.82
2018-07-30T06:53:15.912Z,18.00
2018-07-30T06:55:44.964Z,17.95
2018-07-30T06:58:21.298Z,17.80
2018-07-30T07:00:58.361Z,16.05
2018-07-30T07:03:27.565Z,14.60
2018-07-30T07:05:56.286Z,15.18
2018-07-30T07:08:25.462Z,15.37
2018-07-30T07:10:54.537Z,14.60
2018-07-30T07:13:23.278Z,15.38
2018-07-30T07:15:52.034Z,12.47
2018-07-30T07:18:20.752Z,13.00
2018-07-30T07:20:49.888Z,11.57
2018-07-30T07:23:18.470Z,11.33
2018-07-30T07:25:47.192Z,11.85
2018-07-30T07:28:15.936Z,11.77
2018-07-30T07:30:46.462Z,11.90
2018-07-30T07:33:19.285Z,12.20
2018-07-30T07:35:48.157Z,12.17
2018-07-30T07:38:16.857Z,11.50
2018-07-30T07:40:45.594Z,12.73
2018-07-30T07:43:15.638Z,11.95
2018-07-30T07:45:44.411Z,11.17
2018-07-30T07:48:13.880Z,11.05
2018-07-30T07:50:49.878Z,11.40
2018-07-30T07:53:19.001Z,10.80
2018-07-30T07:55:47.772Z,13.13
2018-07-30T07:58:16.586Z,12.18
2018-07-30T08:00:45.349Z,17.77
2018-07-30T08:03:18.576Z,11.80
2018-07-30T08:05:52.565Z,11.50
2018-07-30T08:08:26.569Z,12.30
2018-07-30T08:10:55.515Z,11.80
2018-07-30T08:13:27.705Z,12.80
2018-07-30T08:15:57.335Z,12.35
2018-07-30T08:18:30.119Z,13.00
2018-07-30T08:20:58.937Z,12.73
2018-07-30T08:23:27.786Z,16.25
2018-07-30T08:26:06.711Z,12.10
2018-07-30T08:28:35.579Z,12.13
2018-07-30T08:31:04.338Z,12.50
2018-07-30T08:33:33.135Z,12.57
2018-07-30T08:36:02.024Z,12.73
2018-07-30T08:38:31.408Z,12.70
2018-07-30T08:41:00.325Z,13.80
2018-07-30T08:43:29.034Z,13.95
2018-07-30T08:45:57.815Z,13.25
2018-07-30T08:48:26.575Z,12.27
2018-07-30T08:50:55.328Z,12.10
2018-07-30T08:53:24.086Z,13.15
2018-07-30T08:55:52.826Z,11.63
2018-07-30T08:58:21.528Z,12.78
2018-07-30T09:00:50.136Z,14.47
2018-07-30T09:03:18.895Z,11.97
2018-07-30T09:05:47.575Z,15.40
2018-07-30T09:08:16.373Z,14.27
2018-07-30T09:10:45.165Z,11.35
2018-07-30T09:13:13.903Z,16.55
2018-07-30T09:15:46.412Z,11.80
2018-07-30T09:18:20.927Z,12.87
2018-07-30T09:20:54.355Z,12.93
2018-07-30T09:23:29.123Z,15.50
2018-07-30T09:25:57.970Z,13.25
2018-07-30T09:28:26.645Z,11.15
2018-07-30T09:30:55.544Z,13.05
2018-07-30T09:33:24.494Z,11.33
2018-07-30T09:35:53.302Z,12.40
2018-07-30T09:38:22.137Z,13.93
2018-07-30T09:40:50.930Z,13.58
2018-07-30T09:43:19.705Z,14.10
2018-07-30T09:45:48.388Z,12.90
2018-07-30T09:48:17.130Z,14.33
2018-07-30T09:50:45.999Z,15.10
2018-07-30T09:53:19.058Z,13.75
2018-07-30T09:55:47.875Z,12.03
2018-07-30T09:58:16.545Z,11.78
2018-07-30T10:00:51.013Z,11.68
2018-07-30T10:03:19.833Z,11.35
2018-07-30T10:05:48.867Z,11.77
2018-07-30T10:08:17.788Z,12.60
2018-07-30T10:10:46.844Z,13.10
2018-07-30T10:13:18.744Z,13.00
2018-07-30T10:15:47.666Z,12.33
2018-07-30T10:18:16.548Z,13.58
2018-07-30T10:20:45.237Z,12.15
2018-07-30T10:23:15.512Z,13.48
2018-07-30T10:25:44.239Z,14.00
2018-07-30T10:28:13.059Z,10.70
2018-07-30T10:30:41.760Z,13.93
2018-07-30T10:33:12.007Z,14.80
2018-07-30T10:35:40.553Z,12.50
2018-07-30T10:38:11.182Z,12.47
2018-07-30T10:40:39.994Z,12.07
2018-07-30T10:43:09.552Z,11.35
2018-07-30T10:45:38.449Z,12.07
2018-07-30T10:48:10.361Z,11.85
2018-07-30T10:50:39.154Z,12.05
2018-07-30T10:53:08.573Z,12.10
2018-07-30T10:55:37.542Z,11.23
2018-07-30T10:58:06.708Z,11.25
2018-07-30T11:00:40.898Z,11.30
2018-07-30T11:03:14.878Z,14.18
2018-07-30T11:05:47.968Z,12.78
2018-07-30T11:08:16.779Z,11.30
2018-07-30T11:10:45.674Z,13.65
2018-07-30T11:13:14.449Z,11.43
2018-07-30T11:15:43.427Z,10.78
2018-07-30T11:18:12.511Z,9.63
2018-07-30T11:20:41.280Z,10.88
2018-07-30T11:23:10.034Z,10.95
2018-07-30T11:25:38.732Z,10.60
2018-07-30T11:28:07.636Z,10.47
2018-07-30T11:30:36.412Z,9.95
2018-07-30T11:33:05.240Z,10.38
2018-07-30T11:35:33.947Z,9.63
2018-07-30T11:38:02.667Z,9.93
2018-07-30T11:40:31.422Z,9.55
2018-07-30T11:43:00.593Z,9.73
2018-07-30T11:45:29.390Z,9.33
2018-07-30T11:47:58.085Z,9.10
2018-07-30T11:50:26.864Z,9.05
2018-07-30T11:52:56.686Z,11.10
2018-07-30T11:55:25.295Z,9.43
2018-07-30T11:57:54.040Z,9.28
2018-07-30T12:00:22.876Z,8.70
2018-07-30T12:02:51.532Z,9.25
2018-07-30T12:05:20.291Z,8.75
2018-07-30T12:07:57.706Z,9.20
2018-07-30T12:10:31.615Z,9.95
2018-07-30T12:13:00.549Z,9.35
2018-07-30T12:15:39.491Z,9.88
2018-07-30T12:18:16.381Z,9.75
2018-07-30T12:20:45.318Z,9.30
2018-07-30T12:23:14.084Z,11.08
2018-07-30T12:25:43.286Z,11.15
2018-07-30T12:28:11.959Z,10.08
2018-07-30T12:30:41.211Z,11.33
2018-07-30T12:33:10.084Z,12.85
2018-07-30T12:35:40.240Z,9.98
2018-07-30T12:38:09.046Z,9.23
2018-07-30T12:40:37.952Z,9.63
2018-07-30T12:43:15.776Z,9.30
2018-07-30T12:45:53.711Z,8.83
2018-07-30T12:48:36.041Z,9.10
2018-07-30T12:51:14.492Z,8.20
2018-07-30T12:53:48.045Z,9.85
2018-07-30T12:56:16.770Z,8.60
2018-07-30T12:58:50.511Z,8.23
2018-07-30T13:01:19.456Z,9.33
2018-07-30T13:03:49.307Z,8.83
2018-07-30T13:06:17.942Z,8.87
2018-07-30T13:08:46.714Z,8.93
2018-07-30T13:11:15.670Z,8.38
2018-07-30T13:13:44.586Z,9.40
2018-07-30T13:16:13.257Z,8.85
2018-07-30T13:18:41.962Z,9.43
2018-07-30T13:21:10.729Z,8.58
2018-07-30T13:23:49.272Z,9.18
2018-07-30T13:26:27.933Z,8.28
2018-07-30T13:28:56.840Z,9.30
2018-07-30T13:31:25.749Z,7.95
2018-07-30T13:33:57.010Z,9.03
2018-07-30T13:36:25.663Z,8.00
2018-07-30T13:38:54.380Z,10.35
2018-07-30T13:41:23.048Z,8.40
2018-07-30T13:43:56.051Z,8.80
2018-07-30T13:46:24.741Z,8.48
2018-07-30T13:48:53.410Z,9.00
2018-07-30T13:51:22.078Z,8.60
2018-07-30T13:53:50.782Z,9.53
2018-07-30T13:56:19.456Z,9.20
2018-07-30T13:58:48.152Z,9.10
2018-07-30T14:01:16.868Z,8.50
2018-07-30T14:03:45.583Z,8.35
2018-07-30T14:06:14.214Z,6.83
2018-07-30T14:08:42.937Z,9.75
2018-07-30T14:11:11.591Z,6.90
2018-07-30T14:13:40.330Z,6.92
2018-07-30T14:16:09.091Z,5.77
2018-07-30T14:18:37.819Z,6.12
2018-07-30T14:21:06.528Z,7.95
2018-07-30T14:23:37.018Z,5.80
2018-07-30T14:26:05.697Z,6.05
2018-07-30T14:28:34.443Z,5.78
2018-07-30T14:31:03.192Z,6.30
2018-07-30T14:33:31.884Z,6.37
2018-07-30T14:36:00.631Z,6.58
2018-07-30T14:38:29.303Z,6.65
2018-07-30T14:40:58.090Z,7.30
2018-07-30T14:43:26.940Z,11.18
2018-07-30T14:45:55.638Z,6.33
2018-07-30T14:48:24.321Z,7.03
2018-07-30T14:50:53.688Z,6.85
2018-07-30T14:53:23.384Z,6.58
2018-07-30T14:55:55.007Z,6.20
2018-07-30T14:58:23.709Z,6.80
2018-07-30T15:00:52.297Z,6.07
2018-07-30T15:03:21.061Z,6.75
2018-07-30T15:05:49.864Z,6.22
2018-07-30T15:08:18.550Z,6.03
2018-07-30T15:10:47.247Z,7.67
2018-07-30T15:13:15.972Z,6.58
2018-07-30T15:15:44.681Z,6.15
2018-07-30T15:18:13.423Z,6.35
2018-07-30T15:20:42.186Z,6.40
2018-07-30T15:23:10.917Z,6.72
2018-07-30T15:25:39.681Z,6.90
2018-07-30T15:29:37.758Z,7.55
2018-07-30T15:32:06.566Z,6.50
2018-07-30T15:34:35.269Z,7.00
2018-07-30T15:37:04.034Z,6.80
2018-07-30T15:39:32.796Z,6.43
2018-07-30T15:42:01.407Z,8.08
2018-07-30T15:44:30.190Z,6.62
2018-07-30T15:46:58.856Z,6.37
2018-07-30T15:49:27.557Z,6.50
2018-07-30T15:51:56.206Z,7.53
2018-07-30T15:54:24.898Z,7.10
2018-07-30T15:56:54.043Z,6.60
2018-07-30T15:59:22.728Z,7.42
2018-07-30T16:01:51.295Z,6.92
2018-07-30T16:04:20.200Z,6.90
2018-07-30T16:06:48.939Z,8.03
2018-07-30T16:09:17.678Z,6.42
2018-07-30T16:11:46.574Z,6.57
2018-07-30T16:14:15.383Z,7.00
2018-07-30T16:16:44.266Z,6.72
2018-07-30T16:19:12.936Z,7.00
2018-07-30T16:21:41.842Z,8.88
2018-07-30T16:24:10.640Z,9.40
2018-07-30T16:26:39.287Z,7.95
2018-07-30T16:29:08.067Z,6.72
2018-07-30T16:31:36.760Z,8.07
2018-07-30T16:34:05.581Z,7.70
2018-07-30T16:36:34.514Z,7.03
2018-07-30T16:39:03.473Z,7.42
2018-07-30T16:41:34.731Z,6.97
2018-07-30T16:44:03.381Z,6.20
2018-07-30T16:46:32.066Z,6.83
2018-07-30T16:49:00.984Z,6.80
2018-07-30T16:51:29.919Z,6.78
2018-07-30T16:53:58.654Z,6.42
2018-07-30T16:56:27.348Z,6.92
2018-07-30T16:58:56.154Z,6.30
2018-07-30T17:01:24.953Z,6.30
2018-07-30T17:03:54.443Z,7.28
2018-07-30T17:06:23.172Z,6.30
2018-07-30T17:08:51.921Z,6.10
2018-07-30T17:11:20.640Z,6.22
2018-07-30T17:13:49.309Z,7.17
2018-07-30T17:16:17.960Z,6.13
2018-07-30T17:18:46.688Z,6.10
2018-07-30T17:21:15.484Z,6.53
2018-07-30T17:23:44.187Z,6.60
2018-07-30T17:26:12.817Z,6.60
2018-07-30T17:28:41.560Z,6.60
2018-07-30T17:31:10.348Z,5.87
2018-07-30T17:33:40.024Z,6.90
2018-07-30T17:36:08.767Z,6.47
2018-07-30T17:38:37.569Z,6.83
2018-07-30T17:41:06.874Z,6.75
2018-07-30T17:43:36.630Z,7.53
2018-07-30T17:46:05.988Z,7.60
2018-07-30T17:48:34.656Z,7.10
2018-07-30T17:51:03.618Z,7.67
2018-07-30T17:53:32.422Z,7.78
2018-07-30T17:56:01.694Z,7.05
2018-07-30T17:58:30.541Z,6.33
2018-07-30T18:00:59.268Z,7.35
2018-07-30T18:03:28.860Z,6.58
2018-07-30T18:06:04.259Z,7.42
2018-07-30T18:08:33.164Z,7.78
2018-07-30T18:11:01.948Z,6.77
2018-07-30T18:13:31.830Z,7.78
2018-07-30T18:16:00.750Z,8.85
2018-07-30T18:18:30.101Z,7.33
2018-07-30T18:20:58.826Z,7.72
2018-07-30T18:23:27.637Z,7.47
2018-07-30T18:25:59.501Z,6.80
2018-07-30T18:28:28.335Z,7.92
2018-07-30T18:30:57.144Z,8.30
2018-07-30T18:33:25.987Z,7.00
2018-07-30T18:35:54.733Z,7.35
2018-07-30T18:38:23.472Z,7.47
2018-07-30T18:40:52.321Z,8.75
2018-07-30T18:43:21.240Z,7.28
2018-07-30T18:45:50.140Z,8.25
2018-07-30T18:48:19.037Z,9.40
2018-07-30T18:50:47.845Z,8.33
2018-07-30T18:53:16.640Z,9.13
2018-07-30T18:55:45.452Z,10.50
2018-07-30T18:58:14.217Z,10.00
2018-07-30T19:00:44.579Z,12.28
2018-07-30T19:03:13.410Z,9.33
2018-07-30T19:05:42.262Z,13.33
2018-07-30T19:08:11.014Z,12.33
2018-07-30T19:10:39.850Z,9.40
2018-07-30T19:13:08.714Z,14.15
2018-07-30T19:15:37.534Z,10.03
2018-07-30T19:18:06.243Z,10.30
2018-07-30T19:20:34.979Z,11.03
2018-07-30T19:23:03.703Z,11.27
2018-07-30T19:25:32.460Z,11.60
2018-07-30T19:28:01.289Z,15.30
2018-07-30T19:30:29.980Z,9.38
2018-07-30T19:32:58.857Z,14.05
2018-07-30T19:35:27.870Z,11.23
2018-07-30T19:37:56.630Z,9.03
2018-07-30T19:40:25.499Z,10.10
2018-07-30T19:42:54.631Z,11.28
2018-07-30T19:45:23.558Z,8.48
2018-07-30T19:47:52.267Z,8.63
2018-07-30T19:50:21.840Z,10.48
2018-07-30T19:52:51.884Z,9.93
2018-07-30T19:55:20.602Z,8.70
2018-07-30T19:57:56.260Z,9.03
2018-07-30T20:00:25.813Z,12.73
2018-07-30T20:02:55.721Z,16.13
2018-07-30T20:05:31.877Z,16.97
2018-07-30T20:08:01.218Z,10.15
2018-07-30T20:10:29.947Z,11.57
2018-07-30T20:12:59.363Z,17.48
2018-07-30T20:15:28.115Z,10.13
2018-07-30T20:17:56.986Z,14.07
2018-07-30T20:20:25.770Z,9.78
2018-07-30T20:22:54.460Z,11.00
2018-07-30T20:25:23.133Z,9.90
2018-07-30T20:27:51.837Z,8.75
2018-07-30T20:30:20.868Z,9.27
2018-07-30T20:32:49.652Z,9.00
2018-07-30T20:35:18.491Z,8.90
2018-07-30T20:37:47.341Z,9.30
2018-07-30T20:40:16.134Z,9.05
2018-07-30T20:42:44.846Z,10.28
2018-07-30T20:45:13.655Z,11.55
2018-07-30T20:47:42.340Z,10.13
2018-07-30T20:50:11.157Z,12.03
2018-07-30T20:52:39.978Z,13.75
2018-07-30T20:55:08.869Z,9.33
2018-07-30T20:57:37.530Z,8.48
2018-07-30T21:00:06.353Z,10.17
2018-07-30T21:02:35.140Z,10.32
2018-07-30T21:05:04.039Z,9.07
2018-07-30T21:07:33.711Z,11.40
2018-07-30T21:10:02.542Z,8.83
2018-07-30T21:12:31.109Z,8.75
2018-07-30T21:14:59.906Z,15.63
2018-07-30T21:17:28.682Z,9.10
2018-07-30T21:19:57.486Z,8.93
2018-07-30T21:22:26.139Z,9.03
2018-07-30T21:24:54.822Z,9.28
2018-07-30T21:27:23.783Z,8.70
2018-07-30T21:29:52.659Z,9.00
2018-07-30T21:32:21.382Z,9.15
2018-07-30T21:34:50.134Z,9.07
2018-07-30T21:37:18.869Z,8.68
2018-07-30T21:39:47.531Z,9.20
2018-07-30T21:42:16.219Z,9.85
2018-07-30T21:44:44.833Z,9.73
2018-07-30T21:47:16.293Z,9.33
2018-07-30T21:49:45.033Z,11.30
2018-07-30T21:52:13.766Z,9.40
2018-07-30T21:54:42.456Z,8.87
2018-07-30T21:57:11.303Z,12.50
2018-07-30T21:59:40.300Z,10.97
2018-07-30T22:02:09.151Z,10.32
2018-07-30T22:04:37.835Z,9.45
2018-07-30T22:07:06.651Z,9.40
2018-07-30T22:09:39.673Z,22.13
2018-07-30T22:12:08.572Z,10.30
2018-07-30T22:14:37.269Z,34.25
2018-07-30T22:17:06.392Z,39.10
2018-07-30T22:19:35.126Z,21.63
2018-07-30T22:22:03.906Z,14.05
2018-07-30T22:24:32.760Z,12.40
2018-07-30T22:27:01.517Z,13.62
2018-07-30T22:29:30.259Z,14.47
2018-07-30T22:31:59.076Z,9.58
2018-07-30T22:34:27.984Z,9.30
2018-07-30T22:36:56.662Z,9.68
2018-07-30T22:39:25.570Z,10.32
2018-07-30T22:41:54.286Z,9.55
2018-07-30T22:44:23.050Z,9.90
2018-07-30T22:46:51.886Z,9.80
2018-07-30T22:49:20.973Z,9.48
2018-07-30T22:51:49.751Z,10.13
2018-07-30T22:54:18.494Z,9.90
2018-07-30T22:56:47.195Z,9.93
2018-07-30T22:59:15.799Z,9.90
2018-07-30T23:01:44.539Z,10.10
2018-07-30T23:04:15.924Z,10.78
2018-07-30T23:06:44.743Z,10.18
2018-07-30T23:09:13.613Z,10.13
2018-07-30T23:11:42.264Z,10.03
2018-07-30T23:14:10.930Z,10.00
2018-07-30T23:16:39.663Z,10.18
2018-07-30T23:19:08.479Z,10.07
2018-07-30T23:21:37.373Z,10.32
2018-07-30T23:24:06.042Z,9.60
2018-07-30T23:26:34.804Z,9.98
2018-07-30T23:29:03.669Z,9.40
2018-07-30T23:31:32.399Z,10.40
2018-07-30T23:34:01.161Z,10.13
2018-07-30T23:36:29.872Z,10.40
2018-07-30T23:38:58.580Z,10.00
2018-07-30T23:41:27.306Z,10.72
2018-07-30T23:43:56.068Z,11.18
2018-07-30T23:46:24.855Z,10.93
2018-07-30T23:48:53.575Z,11.30
2018-07-30T23:51:22.277Z,11.73
2018-07-30T23:53:51.001Z,11.40
2018-07-30T23:56:19.754Z,11.10
2018-07-30T23:58:48.398Z,10.55
